createdAt,value
2023-01-18T00:01:31.220Z,66.37
2023-01-18T00:04:01.518Z,66.32
2023-01-18T00:06:31.785Z,66.14
2023-01-18T00:09:02.051Z,66.87
2023-01-18T00:11:32.445Z,67.63
2023-01-18T00:14:03.149Z,68.50
2023-01-18T00:16:36.383Z,68.75
2023-01-18T00:19:06.995Z,67.75
2023-01-18T00:21:37.389Z,67.19
2023-01-18T00:24:11.187Z,67.30
2023-01-18T00:26:41.493Z,67.30
2023-01-18T00:29:12.988Z,67.58
2023-01-18T00:31:45.964Z,67.20
2023-01-18T00:34:16.238Z,66.30
2023-01-18T00:36:46.514Z,66.06
2023-01-18T00:39:17.199Z,65.99
2023-01-18T00:41:59.880Z,65.90
2023-01-18T00:44:30.099Z,65.37
2023-01-18T00:47:03.091Z,65.58
2023-01-18T00:49:33.423Z,65.52
2023-01-18T00:52:03.700Z,66.18
2023-01-18T00:54:33.993Z,66.85
2023-01-18T00:57:04.270Z,67.23
2023-01-18T00:59:34.584Z,67.83
2023-01-18T01:02:07.734Z,68.50
2023-01-18T01:04:50.443Z,68.45
2023-01-18T01:07:20.709Z,68.25
2023-01-18T01:09:51.016Z,67.91
2023-01-18T01:12:33.714Z,67.29
2023-01-18T01:15:16.374Z,67.01
2023-01-18T01:18:01.668Z,67.88
2023-01-18T01:20:44.503Z,67.58
2023-01-18T01:23:29.820Z,67.05
2023-01-18T01:26:08.109Z,66.74
2023-01-18T01:28:39.104Z,66.71
2023-01-18T01:31:12.107Z,66.35
2023-01-18T01:33:45.716Z,66.68
2023-01-18T01:36:18.035Z,66.25
2023-01-18T01:38:48.379Z,66.42
2023-01-18T01:41:25.431Z,66.32
2023-01-18T01:43:58.017Z,65.71
2023-01-18T01:46:36.959Z,65.97
2023-01-18T01:49:14.634Z,65.87
2023-01-18T01:51:48.086Z,66.33
2023-01-18T01:54:25.449Z,66.37
2023-01-18T01:57:00.758Z,66.82
2023-01-18T01:59:31.184Z,67.34
2023-01-18T02:02:01.594Z,67.42
2023-01-18T02:04:35.424Z,67.92
2023-01-18T02:07:05.798Z,67.72
2023-01-18T02:09:36.166Z,67.51
2023-01-18T02:12:07.345Z,67.49
2023-01-18T02:14:37.734Z,67.44
2023-01-18T02:17:31.044Z,67.32
2023-01-18T02:20:41.937Z,67.56
2023-01-18T02:23:35.657Z,67.60
2023-01-18T02:26:42.423Z,67.69
2023-01-18T02:29:19.340Z,67.44
2023-01-18T02:32:06.667Z,68.16
2023-01-18T02:34:44.098Z,67.86
2023-01-18T02:37:23.916Z,67.91
2023-01-18T02:40:08.189Z,67.79
2023-01-18T02:42:53.855Z,66.18
2023-01-18T02:45:46.507Z,65.47
2023-01-18T02:48:18.155Z,65.78
2023-01-18T02:50:48.448Z,66.00
2023-01-18T02:53:20.243Z,66.19
2023-01-18T02:55:56.611Z,65.81
2023-01-18T02:58:31.900Z,65.83
2023-01-18T03:01:10.851Z,66.02
2023-01-18T03:03:44.901Z,66.37
2023-01-18T03:06:15.642Z,66.75
2023-01-18T03:08:51.079Z,66.42
2023-01-18T03:11:30.324Z,65.80
2023-01-18T03:14:13.016Z,66.00
2023-01-18T03:17:00.760Z,66.29
2023-01-18T03:19:55.621Z,65.79
2023-01-18T03:22:49.402Z,66.38
2023-01-18T03:25:22.628Z,65.58
2023-01-18T03:28:08.561Z,65.86
2023-01-18T03:30:52.188Z,66.06
2023-01-18T03:33:40.100Z,65.78
2023-01-18T03:36:17.717Z,65.95
2023-01-18T03:38:53.629Z,65.93
2023-01-18T03:41:26.126Z,66.11
2023-01-18T03:43:59.666Z,66.04
2023-01-18T03:46:34.491Z,66.01
2023-01-18T03:49:07.961Z,65.88
2023-01-18T03:51:52.444Z,65.56
2023-01-18T03:54:33.418Z,65.76
2023-01-18T03:57:10.589Z,66.51
2023-01-18T03:59:42.431Z,67.40
2023-01-18T04:02:13.838Z,67.45
2023-01-18T04:04:46.782Z,67.62
2023-01-18T04:07:17.156Z,67.40
2023-01-18T04:09:47.490Z,66.97
2023-01-18T04:12:17.813Z,66.59
2023-01-18T04:14:48.168Z,66.43
2023-01-18T04:17:19.140Z,66.55
2023-01-18T04:19:52.148Z,67.18
2023-01-18T04:22:22.942Z,67.21
2023-01-18T04:24:53.282Z,67.52
2023-01-18T04:27:25.216Z,67.96
2023-01-18T04:29:55.658Z,68.25
2023-01-18T04:32:25.953Z,68.75
2023-01-18T04:34:58.884Z,69.04
2023-01-18T04:37:31.608Z,70.05
2023-01-18T04:40:01.866Z,70.07
2023-01-18T04:42:32.357Z,70.64
2023-01-18T04:45:02.834Z,70.90
2023-01-18T04:47:33.063Z,71.10
2023-01-18T04:50:07.814Z,71.80
2023-01-18T04:52:38.123Z,72.30
2023-01-18T04:55:11.796Z,73.10
2023-01-18T04:57:42.156Z,74.55
2023-01-18T05:00:15.077Z,74.88
2023-01-18T05:02:45.415Z,75.29
2023-01-18T05:05:18.625Z,75.67
2023-01-18T05:07:48.973Z,76.78
2023-01-18T05:10:20.014Z,77.20
2023-01-18T05:12:50.338Z,77.45
2023-01-18T05:15:20.964Z,77.68
2023-01-18T05:17:51.351Z,78.43
2023-01-18T05:20:24.344Z,79.08
2023-01-18T05:22:54.655Z,79.64
2023-01-18T05:25:24.991Z,80.13
2023-01-18T05:27:55.320Z,79.65
2023-01-18T05:30:25.612Z,79.57
2023-01-18T05:32:55.907Z,79.49
2023-01-18T05:35:28.901Z,79.60
2023-01-18T05:37:59.221Z,79.62
2023-01-18T05:40:29.654Z,78.77
2023-01-18T05:43:00.326Z,79.19
2023-01-18T05:45:30.954Z,79.65
2023-01-18T05:48:13.228Z,79.70
2023-01-18T05:50:48.617Z,79.76
2023-01-18T05:53:21.101Z,79.44
2023-01-18T05:55:58.176Z,79.20
2023-01-18T05:58:29.282Z,79.55
2023-01-18T06:00:59.919Z,79.91
2023-01-18T06:03:30.275Z,79.62
2023-01-18T06:06:03.241Z,79.50
2023-01-18T06:08:33.992Z,79.65
2023-01-18T06:11:04.596Z,79.86
2023-01-18T06:13:35.579Z,80.14
2023-01-18T06:16:07.436Z,80.54
2023-01-18T06:18:39.649Z,80.43
2023-01-18T06:21:12.583Z,80.37
2023-01-18T06:23:42.866Z,80.41
2023-01-18T06:26:13.193Z,80.14
2023-01-18T06:28:43.512Z,80.06
2023-01-18T06:31:13.817Z,80.17
2023-01-18T06:33:44.028Z,80.22
2023-01-18T06:36:17.028Z,80.66
2023-01-18T06:38:47.347Z,80.26
2023-01-18T06:41:18.180Z,80.68
2023-01-18T06:43:48.501Z,81.15
2023-01-18T06:46:19.806Z,81.62
2023-01-18T06:48:50.265Z,81.74
2023-01-18T06:51:23.517Z,81.38
2023-01-18T06:53:53.868Z,81.47
2023-01-18T06:56:25.206Z,80.97
2023-01-18T06:58:57.414Z,81.14
2023-01-18T07:01:28.411Z,81.11
2023-01-18T07:03:58.911Z,81.05
2023-01-18T07:06:32.283Z,81.27
2023-01-18T07:09:02.632Z,81.13
2023-01-18T07:11:32.947Z,81.46
2023-01-18T07:14:03.282Z,81.03
2023-01-18T07:16:33.600Z,81.22
2023-01-18T07:19:04.730Z,81.18
2023-01-18T07:21:37.715Z,81.31
2023-01-18T07:24:09.490Z,81.61
2023-01-18T07:26:40.039Z,81.17
2023-01-18T07:29:10.386Z,81.32
2023-01-18T07:31:41.143Z,81.18
2023-01-18T07:34:13.512Z,81.11
2023-01-18T07:36:47.198Z,81.01
2023-01-18T07:39:17.501Z,81.21
2023-01-18T07:41:47.745Z,81.43
2023-01-18T07:44:21.369Z,81.23
2023-01-18T07:46:51.672Z,81.41
2023-01-18T07:49:22.007Z,81.16
2023-01-18T07:51:55.293Z,81.09
2023-01-18T07:54:26.308Z,81.25
2023-01-18T07:56:56.640Z,81.92
2023-01-18T07:59:27.956Z,82.19
2023-01-18T08:01:58.246Z,82.55
2023-01-18T08:04:28.591Z,82.09
2023-01-18T08:07:03.465Z,81.97
2023-01-18T08:09:34.075Z,82.03
2023-01-18T08:12:06.796Z,82.05
2023-01-18T08:14:37.179Z,82.21
2023-01-18T08:17:08.141Z,82.76
2023-01-18T08:19:38.894Z,83.25
2023-01-18T08:22:11.996Z,83.92
2023-01-18T08:24:42.310Z,83.39
2023-01-18T08:27:12.597Z,83.06
2023-01-18T08:29:42.884Z,83.19
2023-01-18T08:32:13.216Z,83.10
2023-01-18T08:34:43.772Z,83.27
2023-01-18T08:37:17.378Z,82.61
2023-01-18T08:39:47.876Z,82.66
2023-01-18T08:42:21.186Z,83.04
2023-01-18T08:44:51.918Z,83.16
2023-01-18T08:47:22.326Z,83.28
2023-01-18T08:49:52.633Z,83.33
2023-01-18T08:52:25.766Z,83.06
2023-01-18T08:54:56.058Z,83.10
2023-01-18T08:57:26.566Z,83.39
2023-01-18T08:59:57.131Z,83.20
2023-01-18T09:02:28.688Z,83.92
2023-01-18T09:04:59.226Z,86.07
2023-01-18T09:07:32.252Z,84.58
2023-01-18T09:10:02.608Z,83.65
2023-01-18T09:12:34.875Z,83.48
2023-01-18T09:15:05.162Z,83.63
2023-01-18T09:17:35.538Z,83.65
2023-01-18T09:20:09.744Z,83.58
2023-01-18T09:22:43.013Z,83.56
2023-01-18T09:25:14.087Z,83.65
2023-01-18T09:27:45.158Z,83.63
2023-01-18T09:30:16.889Z,83.64
2023-01-18T09:32:47.842Z,83.66
2023-01-18T09:35:18.737Z,83.20
2023-01-18T09:37:51.929Z,82.82
2023-01-18T09:40:25.405Z,82.37
2023-01-18T09:42:56.821Z,82.40
2023-01-18T09:45:33.402Z,82.59
2023-01-18T09:48:10.782Z,82.43
2023-01-18T09:50:45.509Z,81.79
2023-01-18T09:53:31.932Z,81.93
2023-01-18T09:56:09.807Z,81.98
2023-01-18T09:58:54.721Z,81.67
2023-01-18T10:01:30.098Z,81.53
2023-01-18T10:04:04.163Z,80.61
2023-01-18T10:06:45.256Z,80.32
2023-01-18T10:09:22.382Z,80.65
2023-01-18T10:12:00.357Z,80.91
2023-01-18T10:14:48.023Z,81.00
2023-01-18T10:17:24.142Z,80.09
2023-01-18T10:19:54.940Z,79.82
2023-01-18T10:22:29.499Z,79.47
2023-01-18T10:25:07.647Z,80.12
2023-01-18T10:28:25.296Z,80.61
2023-01-18T10:31:22.800Z,80.92
2023-01-18T10:33:57.815Z,81.56
2023-01-18T10:36:34.267Z,81.57
2023-01-18T10:39:25.346Z,81.72
2023-01-18T10:42:06.125Z,82.02
2023-01-18T10:44:37.150Z,82.43
2023-01-18T10:47:07.663Z,81.84
2023-01-18T10:49:44.010Z,81.63
2023-01-18T10:52:31.825Z,81.42
2023-01-18T10:55:07.520Z,81.47
2023-01-18T10:57:46.139Z,82.05
2023-01-18T11:00:27.829Z,82.53
2023-01-18T11:03:01.014Z,83.21
2023-01-18T11:05:35.065Z,83.82
2023-01-18T11:08:17.303Z,84.22
2023-01-18T11:10:47.604Z,84.38
2023-01-18T11:13:45.215Z,84.08
2023-01-18T11:16:19.303Z,84.65
2023-01-18T11:19:04.542Z,84.51
2023-01-18T11:21:51.669Z,84.80
2023-01-18T11:24:30.013Z,84.80
2023-01-18T11:27:03.723Z,84.85
2023-01-18T11:29:39.772Z,84.94
2023-01-18T11:32:26.720Z,85.53
2023-01-18T11:35:00.080Z,86.04
2023-01-18T11:37:37.250Z,86.25
2023-01-18T11:40:29.621Z,86.15
2023-01-18T11:43:04.426Z,86.67
2023-01-18T11:45:45.550Z,87.12
2023-01-18T11:48:31.387Z,87.19
2023-01-18T11:51:08.817Z,87.68
2023-01-18T11:53:49.542Z,87.62
2023-01-18T11:56:33.638Z,87.91
2023-01-18T11:59:05.598Z,87.99
2023-01-18T12:02:17.265Z,88.05
2023-01-18T12:05:07.890Z,88.05
2023-01-18T12:07:51.217Z,88.66
2023-01-18T12:10:25.958Z,88.31
2023-01-18T12:13:25.449Z,88.05
2023-01-18T12:16:11.254Z,87.63
2023-01-18T12:19:26.134Z,88.12
2023-01-18T12:22:30.700Z,88.39
2023-01-18T12:25:20.950Z,88.67
2023-01-18T12:28:04.984Z,88.40
2023-01-18T12:30:52.434Z,88.40
2023-01-18T12:33:43.825Z,88.38
2023-01-18T12:36:52.379Z,88.97
2023-01-18T12:39:50.593Z,89.66
2023-01-18T12:42:36.580Z,89.81
2023-01-18T12:45:21.144Z,89.81
2023-01-18T12:48:08.470Z,90.31
2023-01-18T12:50:42.635Z,90.12
2023-01-18T12:53:21.898Z,90.26
2023-01-18T12:55:59.998Z,90.52
2023-01-18T12:58:30.652Z,91.16
2023-01-18T13:01:05.923Z,91.74
2023-01-18T13:03:45.250Z,92.13
2023-01-18T13:06:17.640Z,92.17
2023-01-18T13:08:56.522Z,92.35
2023-01-18T13:11:30.455Z,92.65
2023-01-18T13:14:10.773Z,92.37
2023-01-18T13:16:53.268Z,92.80
2023-01-18T13:19:29.574Z,93.50
2023-01-18T13:22:10.382Z,93.67
2023-01-18T13:25:09.696Z,94.19
2023-01-18T13:27:40.473Z,94.89
2023-01-18T13:30:19.868Z,95.12
2023-01-18T13:32:50.196Z,95.14
2023-01-18T13:35:25.994Z,95.37
2023-01-18T13:37:59.299Z,95.45
2023-01-18T13:40:45.584Z,95.25
2023-01-18T13:43:36.569Z,95.42
2023-01-18T13:46:23.461Z,95.39
2023-01-18T13:48:57.553Z,95.38
2023-01-18T13:51:58.861Z,95.35
2023-01-18T13:55:05.665Z,95.24
2023-01-18T13:57:39.187Z,95.04
2023-01-18T14:00:25.854Z,94.72
2023-01-18T14:02:58.280Z,94.69
2023-01-18T14:05:39.460Z,94.46
2023-01-18T14:08:13.542Z,94.17
2023-01-18T14:10:53.127Z,94.05
2023-01-18T14:14:04.966Z,94.11
2023-01-18T14:16:38.342Z,94.06
2023-01-18T14:19:19.995Z,94.29
2023-01-18T14:22:11.313Z,94.70
2023-01-18T14:25:12.935Z,95.09
2023-01-18T14:27:45.011Z,95.45
2023-01-18T14:30:28.555Z,95.30
2023-01-18T14:33:04.685Z,95.30
2023-01-18T14:35:35.145Z,95.19
2023-01-18T14:38:18.013Z,95.09
2023-01-18T14:40:51.442Z,95.13
2023-01-18T14:43:28.981Z,95.13
2023-01-18T14:46:05.717Z,95.25
2023-01-18T14:48:38.920Z,95.21
2023-01-18T14:51:09.717Z,95.32
2023-01-18T14:53:48.551Z,95.26
2023-01-18T14:56:23.022Z,95.90
2023-01-18T14:58:59.276Z,96.08
2023-01-18T15:01:36.316Z,96.11
2023-01-18T15:04:18.940Z,96.46
2023-01-18T15:06:52.106Z,96.87
2023-01-18T15:09:27.994Z,97.48
2023-01-18T15:12:05.657Z,97.60
2023-01-18T15:14:39.949Z,97.70
2023-01-18T15:17:21.670Z,97.69
2023-01-18T15:19:55.803Z,97.39
2023-01-18T15:22:32.454Z,97.39
2023-01-18T15:25:03.630Z,97.68
2023-01-18T15:27:35.761Z,98.02
2023-01-18T15:30:15.386Z,98.01
2023-01-18T15:32:50.466Z,98.00
2023-01-18T15:35:21.199Z,97.77
2023-01-18T15:37:51.779Z,98.08
2023-01-18T15:40:29.831Z,98.14
2023-01-18T15:43:09.256Z,98.40
2023-01-18T15:45:43.899Z,98.54
2023-01-18T15:48:23.288Z,98.55
2023-01-18T15:50:56.831Z,98.60
2023-01-18T15:53:33.973Z,98.59
2023-01-18T15:56:06.606Z,98.68
2023-01-18T15:58:40.189Z,98.08
2023-01-18T16:01:20.419Z,97.91
2023-01-18T16:04:04.578Z,98.21
2023-01-18T16:06:37.553Z,98.45
2023-01-18T16:09:19.235Z,98.46
2023-01-18T16:11:52.713Z,98.65
2023-01-18T16:14:35.260Z,98.47
2023-01-18T16:17:09.700Z,98.80
2023-01-18T16:19:45.966Z,99.06
2023-01-18T16:22:23.995Z,99.23
2023-01-18T16:24:57.887Z,99.02
2023-01-18T16:27:31.967Z,99.49
2023-01-18T16:30:05.541Z,99.79
2023-01-18T16:32:39.143Z,100.00
2023-01-18T16:35:20.202Z,100.00
2023-01-18T16:37:52.146Z,100.00
2023-01-18T16:40:25.932Z,100.00
2023-01-18T16:43:03.402Z,100.00
2023-01-18T16:45:37.891Z,100.00
2023-01-18T16:48:09.425Z,100.00
2023-01-18T16:50:42.372Z,100.00
2023-01-18T16:53:12.804Z,100.00
2023-01-18T16:55:44.235Z,100.00
2023-01-18T16:58:16.305Z,100.00
2023-01-18T17:00:55.252Z,100.00
2023-01-18T17:03:26.144Z,100.00
2023-01-18T17:05:59.141Z,100.00
2023-01-18T17:08:29.485Z,100.00
2023-01-18T17:11:00.119Z,100.00
2023-01-18T17:13:30.808Z,100.00
2023-01-18T17:16:01.158Z,100.00
2023-01-18T17:18:31.501Z,100.00
2023-01-18T17:21:04.407Z,100.00
2023-01-18T17:23:34.769Z,100.00
2023-01-18T17:26:05.321Z,100.00
2023-01-18T17:28:35.824Z,100.00
2023-01-18T17:31:06.319Z,99.50
2023-01-18T17:33:39.279Z,97.99
2023-01-18T17:36:12.835Z,97.97
2023-01-18T17:38:43.449Z,97.96
2023-01-18T17:41:26.706Z,97.71
2023-01-18T17:43:57.654Z,97.67
2023-01-18T17:46:28.302Z,97.47
2023-01-18T17:48:59.125Z,97.06
2023-01-18T17:51:35.485Z,96.37
2023-01-18T17:54:13.150Z,95.90
2023-01-18T17:56:50.796Z,96.25
2023-01-18T17:59:21.108Z,96.44
2023-01-18T18:01:51.633Z,96.37
2023-01-18T18:04:22.146Z,96.55
2023-01-18T18:06:58.487Z,96.16
2023-01-18T18:09:29.109Z,95.86
2023-01-18T18:12:00.212Z,95.60
2023-01-18T18:14:30.809Z,94.51
2023-01-18T18:17:01.209Z,94.32
2023-01-18T18:19:32.475Z,94.50
2023-01-18T18:22:06.156Z,94.60
2023-01-18T18:24:36.412Z,94.76
2023-01-18T18:27:06.969Z,94.30
2023-01-18T18:29:37.294Z,94.13
2023-01-18T18:32:09.041Z,94.39
2023-01-18T18:34:40.209Z,94.24
2023-01-18T18:37:15.263Z,94.16
2023-01-18T18:39:45.652Z,94.15
2023-01-18T18:42:15.986Z,93.87
2023-01-18T18:44:46.707Z,93.35
2023-01-18T18:47:17.251Z,93.26
2023-01-18T18:49:48.037Z,93.58
2023-01-18T18:52:21.027Z,93.38
2023-01-18T18:54:51.365Z,93.35
2023-01-18T18:57:21.672Z,93.30
2023-01-18T18:59:51.931Z,93.06
2023-01-18T19:02:22.229Z,92.82
2023-01-18T19:04:52.774Z,92.71
2023-01-18T19:07:25.801Z,92.54
2023-01-18T19:09:56.164Z,92.56
2023-01-18T19:12:26.565Z,92.74
2023-01-18T19:14:56.831Z,92.79
2023-01-18T19:17:31.512Z,92.81
2023-01-18T19:20:02.388Z,92.83
2023-01-18T19:22:35.373Z,93.36
2023-01-18T19:25:05.711Z,93.42
2023-01-18T19:27:35.935Z,93.29
2023-01-18T19:30:12.980Z,93.17
2023-01-18T19:32:43.376Z,92.44
2023-01-18T19:35:13.844Z,92.29
2023-01-18T19:37:47.752Z,91.86
2023-01-18T19:40:20.102Z,91.21
2023-01-18T19:42:55.936Z,90.60
2023-01-18T19:45:28.511Z,89.88
2023-01-18T19:48:00.720Z,88.19
2023-01-18T19:50:32.832Z,86.88
2023-01-18T19:53:06.255Z,85.58
2023-01-18T19:55:37.262Z,85.40
2023-01-18T19:58:07.680Z,84.53
2023-01-18T20:00:41.435Z,84.04
2023-01-18T20:03:16.367Z,83.18
2023-01-18T20:05:47.436Z,82.66
2023-01-18T20:08:20.404Z,80.40
2023-01-18T20:10:52.860Z,81.18
2023-01-18T20:13:24.495Z,80.58
2023-01-18T20:15:54.946Z,80.76
2023-01-18T20:18:25.359Z,80.75
2023-01-18T20:20:57.067Z,79.51
2023-01-18T20:23:30.984Z,80.13
2023-01-18T20:26:01.475Z,80.59
2023-01-18T20:28:31.962Z,80.59
2023-01-18T20:31:03.623Z,81.12
2023-01-18T20:33:35.474Z,81.05
2023-01-18T20:36:05.964Z,81.51
2023-01-18T20:38:39.278Z,82.07
2023-01-18T20:41:09.807Z,81.75
2023-01-18T20:43:41.329Z,82.06
2023-01-18T20:46:13.577Z,82.12
2023-01-18T20:48:43.912Z,82.23
2023-01-18T20:51:14.415Z,82.41
2023-01-18T20:53:47.481Z,83.19
2023-01-18T20:56:28.892Z,84.20
2023-01-18T20:59:00.261Z,84.44
2023-01-18T21:01:33.080Z,84.22
2023-01-18T21:04:05.643Z,84.33
2023-01-18T21:06:36.095Z,84.39
2023-01-18T21:09:09.110Z,84.48
2023-01-18T21:11:39.455Z,84.67
2023-01-18T21:14:10.129Z,84.46
2023-01-18T21:16:40.609Z,83.82
2023-01-18T21:19:11.028Z,83.70
2023-01-18T21:21:41.635Z,83.34
2023-01-18T21:24:14.752Z,83.08
2023-01-18T21:26:45.053Z,83.08
2023-01-18T21:29:15.390Z,82.98
2023-01-18T21:31:45.742Z,82.61
2023-01-18T21:34:16.167Z,82.84
2023-01-18T21:36:46.546Z,82.77
2023-01-18T21:39:25.340Z,82.48
2023-01-18T21:42:08.192Z,82.45
2023-01-18T21:44:50.879Z,83.80
2023-01-18T21:47:21.139Z,84.94
2023-01-18T21:50:19.063Z,85.15
2023-01-18T21:53:01.654Z,85.02
2023-01-18T21:55:34.588Z,84.72
2023-01-18T21:58:17.279Z,83.89
2023-01-18T22:00:47.747Z,83.83
2023-01-18T22:03:18.658Z,83.93
2023-01-18T22:05:49.153Z,84.41
2023-01-18T22:08:19.589Z,84.92
2023-01-18T22:10:52.550Z,84.76
2023-01-18T22:13:22.934Z,84.54
2023-01-18T22:15:53.356Z,84.29
2023-01-18T22:18:23.708Z,84.51
2023-01-18T22:21:00.101Z,83.70
2023-01-18T22:23:30.485Z,83.49
2023-01-18T22:26:03.563Z,83.11
2023-01-18T22:28:33.907Z,82.96
2023-01-18T22:31:06.873Z,83.15
2023-01-18T22:33:37.424Z,83.31
2023-01-18T22:36:08.899Z,83.98
2023-01-18T22:38:41.230Z,84.41
2023-01-18T22:41:16.626Z,84.42
2023-01-18T22:43:48.397Z,84.44
2023-01-18T22:46:20.767Z,84.46
2023-01-18T22:48:51.864Z,84.95
2023-01-18T22:51:24.175Z,86.43
2023-01-18T22:53:56.419Z,87.14
2023-01-18T22:56:29.349Z,87.73
2023-01-18T22:59:00.607Z,88.21
2023-01-18T23:01:32.329Z,88.87
2023-01-18T23:04:04.032Z,89.44
2023-01-18T23:06:42.354Z,89.68
2023-01-18T23:09:14.485Z,89.25
2023-01-18T23:11:49.050Z,88.62
2023-01-18T23:14:31.678Z,88.14
2023-01-18T23:17:14.353Z,87.68
2023-01-18T23:19:44.732Z,86.96
2023-01-18T23:22:15.163Z,86.50
2023-01-18T23:24:45.530Z,86.75
2023-01-18T23:27:18.439Z,86.80
2023-01-18T23:29:49.815Z,86.60
2023-01-18T23:32:20.527Z,86.24
2023-01-18T23:34:50.878Z,85.90
2023-01-18T23:37:21.209Z,84.95
2023-01-18T23:40:03.923Z,84.33
2023-01-18T23:42:49.879Z,83.62
2023-01-18T23:45:32.648Z,83.13
2023-01-18T23:48:22.586Z,82.35
2023-01-18T23:51:05.233Z,82.67
2023-01-18T23:53:47.864Z,83.07
2023-01-18T23:56:18.153Z,83.62
2023-01-18T23:58:51.482Z,83.48
